sensor_id;sensor_type;location;lat;lon;timestamp;P1;durP1;ratioP1;P2;durP2;ratioP2
49834;SDS011;35729;52.090;13.162;2022-09-12T00:01:19;7.80;;;7.10;;
49834;SDS011;35729;52.090;13.162;2022-09-12T00:03:50;7.90;;;7.07;;
49834;SDS011;35729;52.090;13.162;2022-09-12T00:06:20;8.13;;;7.32;;
49834;SDS011;35729;52.090;13.162;2022-09-12T00:08:52;8.18;;;7.30;;
49834;SDS011;35729;52.090;13.162;2022-09-12T00:11:25;8.40;;;7.53;;
49834;SDS011;35729;52.090;13.162;2022-09-12T00:13:55;8.00;;;7.30;;
49834;SDS011;35729;52.090;13.162;2022-09-12T00:16:25;8.48;;;7.18;;
49834;SDS011;35729;52.090;13.162;2022-09-12T00:18:55;7.93;;;7.15;;
49834;SDS011;35729;52.090;13.162;2022-09-12T00:21:24;8.77;;;7.05;;
49834;SDS011;35729;52.090;13.162;2022-09-12T00:23:52;11.60;;;6.90;;
49834;SDS011;35729;52.090;13.162;2022-09-12T00:26:21;8.38;;;7.03;;
49834;SDS011;35729;52.090;13.162;2022-09-12T00:28:52;7.35;;;6.65;;
49834;SDS011;35729;52.090;13.162;2022-09-12T00:31:21;7.88;;;7.15;;
49834;SDS011;35729;52.090;13.162;2022-09-12T00:33:51;8.27;;;7.50;;
49834;SDS011;35729;52.090;13.162;2022-09-12T00:36:22;8.43;;;7.53;;
49834;SDS011;35729;52.090;13.162;2022-09-12T00:38:52;8.80;;;7.82;;
49834;SDS011;35729;52.090;13.162;2022-09-12T00:41:22;8.80;;;7.57;;
49834;SDS011;35729;52.090;13.162;2022-09-12T00:43:55;9.00;;;7.90;;
49834;SDS011;35729;52.090;13.162;2022-09-12T00:46:27;8.55;;;7.43;;
49834;SDS011;35729;52.090;13.162;2022-09-12T00:49:02;9.05;;;8.15;;
49834;SDS011;35729;52.090;13.162;2022-09-12T00:51:36;8.48;;;7.68;;
49834;SDS011;35729;52.090;13.162;2022-09-12T00:54:08;9.73;;;8.27;;
49834;SDS011;35729;52.090;13.162;2022-09-12T00:56:40;9.70;;;7.45;;
49834;SDS011;35729;52.090;13.162;2022-09-12T00:59:14;8.40;;;7.60;;
49834;SDS011;35729;52.090;13.162;2022-09-12T01:01:45;9.30;;;8.00;;
49834;SDS011;35729;52.090;13.162;2022-09-12T01:04:17;9.25;;;8.32;;
49834;SDS011;35729;52.090;13.162;2022-09-12T01:06:49;9.48;;;8.38;;
49834;SDS011;35729;52.090;13.162;2022-09-12T01:09:19;10.25;;;8.50;;
49834;SDS011;35729;52.090;13.162;2022-09-12T01:11:50;12.73;;;8.50;;
49834;SDS011;35729;52.090;13.162;2022-09-12T01:14:22;11.52;;;8.70;;
49834;SDS011;35729;52.090;13.162;2022-09-12T01:16:51;13.07;;;9.05;;
49834;SDS011;35729;52.090;13.162;2022-09-12T01:22:43;9.68;;;8.75;;
49834;SDS011;35729;52.090;13.162;2022-09-12T01:25:27;10.05;;;8.88;;
49834;SDS011;35729;52.090;13.162;2022-09-12T01:30:58;10.13;;;8.98;;
49834;SDS011;35729;52.090;13.162;2022-09-12T01:33:34;18.52;;;10.18;;
49834;SDS011;35729;52.090;13.162;2022-09-12T01:39:17;10.73;;;9.57;;
49834;SDS011;35729;52.090;13.162;2022-09-12T01:41:54;12.23;;;10.00;;
49834;SDS011;35729;52.090;13.162;2022-09-12T01:44:35;10.75;;;9.20;;
49834;SDS011;35729;52.090;13.162;2022-09-12T01:47:12;10.93;;;9.75;;
49834;SDS011;35729;52.090;13.162;2022-09-12T01:49:48;11.90;;;10.38;;
49834;SDS011;35729;52.090;13.162;2022-09-12T01:52:24;10.55;;;9.55;;
49834;SDS011;35729;52.090;13.162;2022-09-12T01:54:58;10.93;;;9.48;;
49834;SDS011;35729;52.090;13.162;2022-09-12T01:57:34;13.50;;;10.90;;
49834;SDS011;35729;52.090;13.162;2022-09-12T02:00:08;10.43;;;9.32;;
49834;SDS011;35729;52.090;13.162;2022-09-12T02:02:42;12.20;;;10.38;;
49834;SDS011;35729;52.090;13.162;2022-09-12T02:05:16;11.20;;;9.98;;
49834;SDS011;35729;52.090;13.162;2022-09-12T02:07:50;11.25;;;10.07;;
49834;SDS011;35729;52.090;13.162;2022-09-12T02:10:21;12.43;;;10.05;;
49834;SDS011;35729;52.090;13.162;2022-09-12T02:12:54;11.27;;;10.13;;
49834;SDS011;35729;52.090;13.162;2022-09-12T02:15:25;11.15;;;9.88;;
49834;SDS011;35729;52.090;13.162;2022-09-12T02:18:02;11.05;;;9.95;;
49834;SDS011;35729;52.090;13.162;2022-09-12T02:20:39;11.70;;;10.20;;
49834;SDS011;35729;52.090;13.162;2022-09-12T02:23:11;10.73;;;9.63;;
49834;SDS011;35729;52.090;13.162;2022-09-12T02:25:43;10.40;;;9.38;;
49834;SDS011;35729;52.090;13.162;2022-09-12T02:28:15;10.70;;;9.70;;
49834;SDS011;35729;52.090;13.162;2022-09-12T02:30:57;10.43;;;9.15;;
49834;SDS011;35729;52.090;13.162;2022-09-12T02:33:35;11.13;;;10.02;;
49834;SDS011;35729;52.090;13.162;2022-09-12T02:36:12;10.80;;;9.75;;
49834;SDS011;35729;52.090;13.162;2022-09-12T02:38:49;11.45;;;10.15;;
49834;SDS011;35729;52.090;13.162;2022-09-12T02:41:18;11.40;;;9.75;;
49834;SDS011;35729;52.090;13.162;2022-09-12T02:43:48;11.30;;;10.25;;
49834;SDS011;35729;52.090;13.162;2022-09-12T02:46:19;14.23;;;10.45;;
49834;SDS011;35729;52.090;13.162;2022-09-12T02:48:53;11.73;;;10.52;;
49834;SDS011;35729;52.090;13.162;2022-09-12T02:51:22;13.02;;;11.05;;
49834;SDS011;35729;52.090;13.162;2022-09-12T02:53:52;11.13;;;10.10;;
49834;SDS011;35729;52.090;13.162;2022-09-12T02:56:22;12.27;;;10.93;;
49834;SDS011;35729;52.090;13.162;2022-09-12T02:58:54;11.90;;;10.45;;
49834;SDS011;35729;52.090;13.162;2022-09-12T03:01:30;12.40;;;11.10;;
49834;SDS011;35729;52.090;13.162;2022-09-12T03:07:00;12.25;;;11.00;;
49834;SDS011;35729;52.090;13.162;2022-09-12T03:09:41;11.88;;;10.70;;
49834;SDS011;35729;52.090;13.162;2022-09-12T03:12:24;10.57;;;9.48;;
49834;SDS011;35729;52.090;13.162;2022-09-12T03:15:06;11.23;;;10.07;;
49834;SDS011;35729;52.090;13.162;2022-09-12T03:17:51;11.55;;;10.20;;
49834;SDS011;35729;52.090;13.162;2022-09-12T03:20:32;11.30;;;10.18;;
49834;SDS011;35729;52.090;13.162;2022-09-12T03:23:15;11.80;;;10.20;;
49834;SDS011;35729;52.090;13.162;2022-09-12T03:25:50;10.60;;;9.48;;
49834;SDS011;35729;52.090;13.162;2022-09-12T03:28:23;11.02;;;9.98;;
49834;SDS011;35729;52.090;13.162;2022-09-12T03:30:52;12.02;;;10.55;;
49834;SDS011;35729;52.090;13.162;2022-09-12T03:33:28;10.60;;;9.65;;
49834;SDS011;35729;52.090;13.162;2022-09-12T03:36:03;11.80;;;9.77;;
49834;SDS011;35729;52.090;13.162;2022-09-12T03:38:35;11.07;;;9.98;;
49834;SDS011;35729;52.090;13.162;2022-09-12T03:41:03;11.73;;;10.57;;
49834;SDS011;35729;52.090;13.162;2022-09-12T03:43:32;10.73;;;9.73;;
49834;SDS011;35729;52.090;13.162;2022-09-12T03:46:00;11.45;;;9.90;;
49834;SDS011;35729;52.090;13.162;2022-09-12T03:48:29;11.13;;;9.75;;
49834;SDS011;35729;52.090;13.162;2022-09-12T03:50:59;10.32;;;9.32;;
49834;SDS011;35729;52.090;13.162;2022-09-12T03:53:28;11.27;;;10.18;;
49834;SDS011;35729;52.090;13.162;2022-09-12T03:56:00;10.65;;;9.55;;
49834;SDS011;35729;52.090;13.162;2022-09-12T03:58:32;10.73;;;9.63;;
49834;SDS011;35729;52.090;13.162;2022-09-12T04:01:05;10.88;;;9.82;;
49834;SDS011;35729;52.090;13.162;2022-09-12T04:03:36;10.68;;;9.57;;
49834;SDS011;35729;52.090;13.162;2022-09-12T04:06:06;10.10;;;8.70;;
49834;SDS011;35729;52.090;13.162;2022-09-12T04:08:35;11.70;;;10.50;;
49834;SDS011;35729;52.090;13.162;2022-09-12T04:11:09;10.80;;;9.50;;
49834;SDS011;35729;52.090;13.162;2022-09-12T04:13:39;10.55;;;9.45;;
49834;SDS011;35729;52.090;13.162;2022-09-12T04:16:10;9.40;;;8.50;;
49834;SDS011;35729;52.090;13.162;2022-09-12T04:18:39;10.70;;;8.82;;
49834;SDS011;35729;52.090;13.162;2022-09-12T04:21:09;11.52;;;8.85;;
49834;SDS011;35729;52.090;13.162;2022-09-12T04:23:39;11.45;;;9.40;;
49834;SDS011;35729;52.090;13.162;2022-09-12T04:26:11;14.38;;;9.25;;
49834;SDS011;35729;52.090;13.162;2022-09-12T04:28:41;10.73;;;9.15;;
49834;SDS011;35729;52.090;13.162;2022-09-12T04:31:11;12.23;;;9.60;;
49834;SDS011;35729;52.090;13.162;2022-09-12T04:33:51;11.50;;;10.30;;
49834;SDS011;35729;52.090;13.162;2022-09-12T04:36:27;10.18;;;9.15;;
49834;SDS011;35729;52.090;13.162;2022-09-12T04:38:57;13.00;;;8.93;;
49834;SDS011;35729;52.090;13.162;2022-09-12T04:41:30;11.93;;;10.15;;
49834;SDS011;35729;52.090;13.162;2022-09-12T04:44:02;10.52;;;8.30;;
49834;SDS011;35729;52.090;13.162;2022-09-12T04:46:33;10.27;;;8.10;;
49834;SDS011;35729;52.090;13.162;2022-09-12T04:49:02;11.05;;;9.25;;
49834;SDS011;35729;52.090;13.162;2022-09-12T04:51:32;10.95;;;9.07;;
49834;SDS011;35729;52.090;13.162;2022-09-12T04:54:03;13.90;;;9.25;;
49834;SDS011;35729;52.090;13.162;2022-09-12T04:56:38;10.25;;;8.02;;
49834;SDS011;35729;52.090;13.162;2022-09-12T04:59:08;12.07;;;8.30;;
49834;SDS011;35729;52.090;13.162;2022-09-12T05:01:38;9.13;;;8.20;;
49834;SDS011;35729;52.090;13.162;2022-09-12T05:04:08;15.10;;;12.35;;
49834;SDS011;35729;52.090;13.162;2022-09-12T05:06:37;10.68;;;9.15;;
49834;SDS011;35729;52.090;13.162;2022-09-12T05:09:07;10.35;;;9.18;;
49834;SDS011;35729;52.090;13.162;2022-09-12T05:11:41;11.95;;;7.97;;
49834;SDS011;35729;52.090;13.162;2022-09-12T05:14:11;10.02;;;8.35;;
49834;SDS011;35729;52.090;13.162;2022-09-12T05:16:40;13.88;;;10.00;;
49834;SDS011;35729;52.090;13.162;2022-09-12T05:19:09;9.95;;;8.88;;
49834;SDS011;35729;52.090;13.162;2022-09-12T05:21:38;10.77;;;9.68;;
49834;SDS011;35729;52.090;13.162;2022-09-12T05:24:08;10.73;;;9.07;;
49834;SDS011;35729;52.090;13.162;2022-09-12T05:26:38;12.05;;;9.90;;
49834;SDS011;35729;52.090;13.162;2022-09-12T05:29:09;15.65;;;11.18;;
49834;SDS011;35729;52.090;13.162;2022-09-12T05:31:37;13.18;;;10.75;;
49834;SDS011;35729;52.090;13.162;2022-09-12T05:34:06;11.10;;;9.90;;
49834;SDS011;35729;52.090;13.162;2022-09-12T05:36:35;12.32;;;9.43;;
49834;SDS011;35729;52.090;13.162;2022-09-12T05:39:04;10.55;;;9.45;;
49834;SDS011;35729;52.090;13.162;2022-09-12T05:41:33;10.20;;;9.20;;
49834;SDS011;35729;52.090;13.162;2022-09-12T05:44:05;11.73;;;10.52;;
49834;SDS011;35729;52.090;13.162;2022-09-12T05:46:35;10.80;;;9.60;;
49834;SDS011;35729;52.090;13.162;2022-09-12T05:49:05;11.25;;;9.05;;
49834;SDS011;35729;52.090;13.162;2022-09-12T05:51:36;10.52;;;9.50;;
49834;SDS011;35729;52.090;13.162;2022-09-12T05:54:06;10.85;;;9.85;;
49834;SDS011;35729;52.090;13.162;2022-09-12T05:56:36;10.90;;;9.40;;
49834;SDS011;35729;52.090;13.162;2022-09-12T05:59:10;11.40;;;10.23;;
49834;SDS011;35729;52.090;13.162;2022-09-12T06:01:40;11.30;;;10.10;;
49834;SDS011;35729;52.090;13.162;2022-09-12T06:04:09;12.48;;;11.18;;
49834;SDS011;35729;52.090;13.162;2022-09-12T06:06:38;11.93;;;10.73;;
49834;SDS011;35729;52.090;13.162;2022-09-12T06:09:09;14.27;;;12.77;;
49834;SDS011;35729;52.090;13.162;2022-09-12T06:11:38;13.43;;;12.02;;
49834;SDS011;35729;52.090;13.162;2022-09-12T06:14:11;15.13;;;13.13;;
49834;SDS011;35729;52.090;13.162;2022-09-12T06:16:40;17.90;;;14.30;;
49834;SDS011;35729;52.090;13.162;2022-09-12T06:19:12;14.45;;;12.95;;
49834;SDS011;35729;52.090;13.162;2022-09-12T06:21:41;14.07;;;12.57;;
49834;SDS011;35729;52.090;13.162;2022-09-12T06:24:11;15.30;;;13.35;;
49834;SDS011;35729;52.090;13.162;2022-09-12T06:26:40;138.57;;;98.22;;
49834;SDS011;35729;52.090;13.162;2022-09-12T06:29:11;61.00;;;44.67;;
49834;SDS011;35729;52.090;13.162;2022-09-12T06:31:40;77.47;;;45.20;;
49834;SDS011;35729;52.090;13.162;2022-09-12T06:34:10;64.15;;;44.08;;
49834;SDS011;35729;52.090;13.162;2022-09-12T06:36:40;36.80;;;30.17;;
49834;SDS011;35729;52.090;13.162;2022-09-12T06:39:11;34.70;;;30.67;;
49834;SDS011;35729;52.090;13.162;2022-09-12T06:41:40;31.98;;;27.20;;
49834;SDS011;35729;52.090;13.162;2022-09-12T06:44:13;26.52;;;23.27;;
49834;SDS011;35729;52.090;13.162;2022-09-12T06:46:43;20.23;;;17.83;;
49834;SDS011;35729;52.090;13.162;2022-09-12T06:49:12;18.80;;;15.95;;
49834;SDS011;35729;52.090;13.162;2022-09-12T06:51:41;19.30;;;17.15;;
49834;SDS011;35729;52.090;13.162;2022-09-12T06:54:11;17.73;;;14.48;;
49834;SDS011;35729;52.090;13.162;2022-09-12T06:56:41;16.98;;;13.93;;
49834;SDS011;35729;52.090;13.162;2022-09-12T06:59:12;15.48;;;13.88;;
49834;SDS011;35729;52.090;13.162;2022-09-12T07:01:40;17.80;;;14.90;;
49834;SDS011;35729;52.090;13.162;2022-09-12T07:04:09;15.05;;;13.57;;
49834;SDS011;35729;52.090;13.162;2022-09-12T07:06:39;16.92;;;14.45;;
49834;SDS011;35729;52.090;13.162;2022-09-12T07:09:09;13.50;;;12.10;;
49834;SDS011;35729;52.090;13.162;2022-09-12T07:11:40;14.18;;;12.68;;
49834;SDS011;35729;52.090;13.162;2022-09-12T07:14:12;13.10;;;11.90;;
49834;SDS011;35729;52.090;13.162;2022-09-12T07:16:42;14.25;;;12.73;;
49834;SDS011;35729;52.090;13.162;2022-09-12T07:19:10;13.07;;;11.48;;
49834;SDS011;35729;52.090;13.162;2022-09-12T07:21:39;12.85;;;11.65;;
49834;SDS011;35729;52.090;13.162;2022-09-12T07:24:08;13.00;;;10.73;;
49834;SDS011;35729;52.090;13.162;2022-09-12T07:26:37;12.32;;;11.07;;
49834;SDS011;35729;52.090;13.162;2022-09-12T07:29:07;10.70;;;9.60;;
49834;SDS011;35729;52.090;13.162;2022-09-12T07:31:43;11.52;;;10.18;;
49834;SDS011;35729;52.090;13.162;2022-09-12T07:34:12;11.57;;;10.38;;
49834;SDS011;35729;52.090;13.162;2022-09-12T07:36:41;16.33;;;11.88;;
49834;SDS011;35729;52.090;13.162;2022-09-12T07:39:10;10.57;;;9.48;;
49834;SDS011;35729;52.090;13.162;2022-09-12T07:41:38;11.55;;;10.25;;
49834;SDS011;35729;52.090;13.162;2022-09-12T07:44:07;10.05;;;9.00;;
49834;SDS011;35729;52.090;13.162;2022-09-12T07:46:38;10.82;;;9.75;;
49834;SDS011;35729;52.090;13.162;2022-09-12T07:49:06;8.75;;;7.85;;
49834;SDS011;35729;52.090;13.162;2022-09-12T07:51:35;8.13;;;7.32;;
49834;SDS011;35729;52.090;13.162;2022-09-12T07:54:06;8.75;;;7.88;;
49834;SDS011;35729;52.090;13.162;2022-09-12T07:56:35;8.90;;;7.45;;
49834;SDS011;35729;52.090;13.162;2022-09-12T07:59:03;6.57;;;5.93;;
49834;SDS011;35729;52.090;13.162;2022-09-12T08:01:32;6.93;;;5.70;;
49834;SDS011;35729;52.090;13.162;2022-09-12T08:04:03;7.00;;;6.30;;
49834;SDS011;35729;52.090;13.162;2022-09-12T08:06:32;7.80;;;7.00;;
49834;SDS011;35729;52.090;13.162;2022-09-12T08:09:01;6.15;;;5.63;;
49834;SDS011;35729;52.090;13.162;2022-09-12T08:11:36;6.50;;;5.90;;
49834;SDS011;35729;52.090;13.162;2022-09-12T08:14:06;9.13;;;5.70;;
49834;SDS011;35729;52.090;13.162;2022-09-12T08:16:34;7.57;;;6.00;;
49834;SDS011;35729;52.090;13.162;2022-09-12T08:19:05;6.03;;;4.78;;
49834;SDS011;35729;52.090;13.162;2022-09-12T08:21:33;4.40;;;4.00;;
49834;SDS011;35729;52.090;13.162;2022-09-12T08:24:03;4.40;;;4.00;;
49834;SDS011;35729;52.090;13.162;2022-09-12T08:26:33;6.18;;;4.70;;
49834;SDS011;35729;52.090;13.162;2022-09-12T08:29:02;4.32;;;3.92;;
49834;SDS011;35729;52.090;13.162;2022-09-12T08:31:31;2.95;;;2.75;;
49834;SDS011;35729;52.090;13.162;2022-09-12T08:34:01;2.78;;;2.53;;
49834;SDS011;35729;52.090;13.162;2022-09-12T08:36:33;5.32;;;3.00;;
49834;SDS011;35729;52.090;13.162;2022-09-12T08:39:03;4.95;;;2.85;;
49834;SDS011;35729;52.090;13.162;2022-09-12T08:41:35;9.52;;;6.60;;
49834;SDS011;35729;52.090;13.162;2022-09-12T08:47:10;5.47;;;3.80;;
49834;SDS011;35729;52.090;13.162;2022-09-12T08:49:47;3.30;;;2.90;;
49834;SDS011;35729;52.090;13.162;2022-09-12T08:52:28;3.22;;;2.47;;
49834;SDS011;35729;52.090;13.162;2022-09-12T08:55:02;1.65;;;1.38;;
49834;SDS011;35729;52.090;13.162;2022-09-12T08:57:33;1.42;;;1.25;;
49834;SDS011;35729;52.090;13.162;2022-09-12T09:00:02;1.83;;;1.58;;
49834;SDS011;35729;52.090;13.162;2022-09-12T09:05:36;2.65;;;1.70;;
49834;SDS011;35729;52.090;13.162;2022-09-12T09:08:18;2.13;;;1.25;;
49834;SDS011;35729;52.090;13.162;2022-09-12T09:10:52;3.40;;;1.50;;
49834;SDS011;35729;52.090;13.162;2022-09-12T09:13:30;1.73;;;1.38;;
49834;SDS011;35729;52.090;13.162;2022-09-12T09:16:18;2.67;;;1.33;;
49834;SDS011;35729;52.090;13.162;2022-09-12T09:18:54;1.50;;;1.40;;
49834;SDS011;35729;52.090;13.162;2022-09-12T09:21:28;1.73;;;1.30;;
49834;SDS011;35729;52.090;13.162;2022-09-12T09:26:37;4.70;;;1.35;;
49834;SDS011;35729;52.090;13.162;2022-09-12T09:29:13;3.00;;;1.98;;
49834;SDS011;35729;52.090;13.162;2022-09-12T09:31:44;1.90;;;1.42;;
49834;SDS011;35729;52.090;13.162;2022-09-12T09:34:44;2.50;;;1.33;;
49834;SDS011;35729;52.090;13.162;2022-09-12T09:37:14;1.50;;;1.40;;
49834;SDS011;35729;52.090;13.162;2022-09-12T09:39:51;2.97;;;1.50;;
49834;SDS011;35729;52.090;13.162;2022-09-12T09:42:33;1.48;;;1.27;;
49834;SDS011;35729;52.090;13.162;2022-09-12T09:45:12;2.53;;;1.40;;
49834;SDS011;35729;52.090;13.162;2022-09-12T09:50:12;2.15;;;1.70;;
49834;SDS011;35729;52.090;13.162;2022-09-12T09:52:43;1.30;;;1.17;;
49834;SDS011;35729;52.090;13.162;2022-09-12T09:55:16;2.30;;;1.50;;
49834;SDS011;35729;52.090;13.162;2022-09-12T09:57:49;3.15;;;1.70;;
49834;SDS011;35729;52.090;13.162;2022-09-12T10:00:19;3.20;;;1.50;;
49834;SDS011;35729;52.090;13.162;2022-09-12T10:02:59;1.63;;;1.10;;
49834;SDS011;35729;52.090;13.162;2022-09-12T10:05:51;1.85;;;1.00;;
49834;SDS011;35729;52.090;13.162;2022-09-12T10:08:22;2.30;;;1.20;;
49834;SDS011;35729;52.090;13.162;2022-09-12T10:10:55;2.25;;;1.40;;
49834;SDS011;35729;52.090;13.162;2022-09-12T10:13:27;1.80;;;1.35;;
49834;SDS011;35729;52.090;13.162;2022-09-12T10:16:02;2.25;;;1.60;;
49834;SDS011;35729;52.090;13.162;2022-09-12T10:18:37;1.95;;;1.30;;
49834;SDS011;35729;52.090;13.162;2022-09-12T10:21:14;1.88;;;1.35;;
49834;SDS011;35729;52.090;13.162;2022-09-12T10:23:46;4.45;;;1.38;;
49834;SDS011;35729;52.090;13.162;2022-09-12T10:26:21;2.47;;;1.30;;
49834;SDS011;35729;52.090;13.162;2022-09-12T10:28:50;2.70;;;0.98;;
49834;SDS011;35729;52.090;13.162;2022-09-12T10:31:24;3.30;;;1.15;;
49834;SDS011;35729;52.090;13.162;2022-09-12T10:33:56;1.25;;;0.93;;
49834;SDS011;35729;52.090;13.162;2022-09-12T10:36:34;1.65;;;0.90;;
49834;SDS011;35729;52.090;13.162;2022-09-12T10:39:04;1.42;;;1.13;;
49834;SDS011;35729;52.090;13.162;2022-09-12T10:41:41;3.90;;;1.00;;
49834;SDS011;35729;52.090;13.162;2022-09-12T10:44:13;1.67;;;1.23;;
49834;SDS011;35729;52.090;13.162;2022-09-12T10:46:43;1.25;;;1.05;;
49834;SDS011;35729;52.090;13.162;2022-09-12T10:49:20;2.53;;;1.10;;
49834;SDS011;35729;52.090;13.162;2022-09-12T10:51:51;2.08;;;0.98;;
49834;SDS011;35729;52.090;13.162;2022-09-12T10:54:21;1.88;;;0.90;;
49834;SDS011;35729;52.090;13.162;2022-09-12T10:57:15;2.40;;;1.17;;
49834;SDS011;35729;52.090;13.162;2022-09-12T11:00:02;2.97;;;1.10;;
49834;SDS011;35729;52.090;13.162;2022-09-12T11:05:32;4.05;;;2.63;;
49834;SDS011;35729;52.090;13.162;2022-09-12T11:08:11;3.30;;;1.63;;
49834;SDS011;35729;52.090;13.162;2022-09-12T11:10:49;2.22;;;1.30;;
49834;SDS011;35729;52.090;13.162;2022-09-12T11:13:37;1.27;;;1.00;;
49834;SDS011;35729;52.090;13.162;2022-09-12T11:16:19;1.90;;;1.20;;
49834;SDS011;35729;52.090;13.162;2022-09-12T11:19:03;5.53;;;3.80;;
49834;SDS011;35729;52.090;13.162;2022-09-12T11:21:47;1.35;;;1.17;;
49834;SDS011;35729;52.090;13.162;2022-09-12T11:27:35;1.65;;;1.02;;
49834;SDS011;35729;52.090;13.162;2022-09-12T11:30:19;3.85;;;2.05;;
49834;SDS011;35729;52.090;13.162;2022-09-12T11:35:45;1.50;;;1.20;;
49834;SDS011;35729;52.090;13.162;2022-09-12T11:38:23;2.67;;;1.30;;
49834;SDS011;35729;52.090;13.162;2022-09-12T11:41:14;1.67;;;1.00;;
49834;SDS011;35729;52.090;13.162;2022-09-12T11:43:49;5.22;;;1.20;;
49834;SDS011;35729;52.090;13.162;2022-09-12T11:46:25;2.38;;;1.60;;
49834;SDS011;35729;52.090;13.162;2022-09-12T11:48:59;2.88;;;1.20;;
49834;SDS011;35729;52.090;13.162;2022-09-12T11:51:33;3.53;;;1.17;;
49834;SDS011;35729;52.090;13.162;2022-09-12T11:54:21;2.88;;;1.70;;
49834;SDS011;35729;52.090;13.162;2022-09-12T11:56:56;2.17;;;1.00;;
49834;SDS011;35729;52.090;13.162;2022-09-12T11:59:33;1.67;;;0.90;;
49834;SDS011;35729;52.090;13.162;2022-09-12T12:02:13;1.65;;;1.17;;
49834;SDS011;35729;52.090;13.162;2022-09-12T12:04:53;1.45;;;0.90;;
49834;SDS011;35729;52.090;13.162;2022-09-12T12:07:29;1.50;;;1.10;;
49834;SDS011;35729;52.090;13.162;2022-09-12T12:10:04;1.33;;;1.00;;
49834;SDS011;35729;52.090;13.162;2022-09-12T12:12:35;1.25;;;0.80;;
49834;SDS011;35729;52.090;13.162;2022-09-12T12:15:04;1.98;;;1.17;;
49834;SDS011;35729;52.090;13.162;2022-09-12T12:17:36;2.17;;;1.13;;
49834;SDS011;35729;52.090;13.162;2022-09-12T12:20:05;1.17;;;0.90;;
49834;SDS011;35729;52.090;13.162;2022-09-12T12:22:49;1.75;;;1.10;;
49834;SDS011;35729;52.090;13.162;2022-09-12T12:25:23;2.05;;;1.38;;
49834;SDS011;35729;52.090;13.162;2022-09-12T12:28:05;1.42;;;0.90;;
49834;SDS011;35729;52.090;13.162;2022-09-12T12:30:57;1.30;;;0.90;;
49834;SDS011;35729;52.090;13.162;2022-09-12T12:48:26;1.45;;;0.88;;
49834;SDS011;35729;52.090;13.162;2022-09-12T12:51:19;1.55;;;1.23;;
49834;SDS011;35729;52.090;13.162;2022-09-12T12:53:57;2.17;;;1.40;;
49834;SDS011;35729;52.090;13.162;2022-09-12T12:56:32;3.83;;;1.10;;
49834;SDS011;35729;52.090;13.162;2022-09-12T12:59:15;1.30;;;1.00;;
49834;SDS011;35729;52.090;13.162;2022-09-12T13:01:48;1.03;;;0.93;;
49834;SDS011;35729;52.090;13.162;2022-09-12T13:04:20;2.00;;;0.90;;
49834;SDS011;35729;52.090;13.162;2022-09-12T13:06:58;1.30;;;1.00;;
49834;SDS011;35729;52.090;13.162;2022-09-12T13:09:29;2.25;;;1.10;;
49834;SDS011;35729;52.090;13.162;2022-09-12T13:12:03;2.13;;;1.40;;
49834;SDS011;35729;52.090;13.162;2022-09-12T13:14:35;1.33;;;1.10;;
49834;SDS011;35729;52.090;13.162;2022-09-12T13:20:14;1.58;;;1.10;;
49834;SDS011;35729;52.090;13.162;2022-09-12T13:22:49;3.67;;;1.10;;
49834;SDS011;35729;52.090;13.162;2022-09-12T13:25:20;1.77;;;0.98;;
49834;SDS011;35729;52.090;13.162;2022-09-12T13:27:58;1.83;;;1.00;;
49834;SDS011;35729;52.090;13.162;2022-09-12T13:30:32;2.85;;;1.92;;
49834;SDS011;35729;52.090;13.162;2022-09-12T13:33:08;8.25;;;5.03;;
49834;SDS011;35729;52.090;13.162;2022-09-12T13:38:55;2.25;;;1.50;;
49834;SDS011;35729;52.090;13.162;2022-09-12T13:41:39;4.28;;;1.20;;
49834;SDS011;35729;52.090;13.162;2022-09-12T13:44:31;2.15;;;1.23;;
49834;SDS011;35729;52.090;13.162;2022-09-12T13:47:08;1.38;;;0.90;;
49834;SDS011;35729;52.090;13.162;2022-09-12T13:49:42;4.18;;;1.95;;
49834;SDS011;35729;52.090;13.162;2022-09-12T13:52:14;2.10;;;1.40;;
49834;SDS011;35729;52.090;13.162;2022-09-12T13:54:49;2.92;;;1.65;;
49834;SDS011;35729;52.090;13.162;2022-09-12T13:57:27;3.78;;;0.93;;
49834;SDS011;35729;52.090;13.162;2022-09-12T13:59:57;4.28;;;2.72;;
49834;SDS011;35729;52.090;13.162;2022-09-12T14:02:27;1.35;;;1.13;;
49834;SDS011;35729;52.090;13.162;2022-09-12T14:04:56;4.97;;;2.30;;
49834;SDS011;35729;52.090;13.162;2022-09-12T14:07:37;2.30;;;1.50;;
49834;SDS011;35729;52.090;13.162;2022-09-12T14:10:20;1.55;;;1.00;;
49834;SDS011;35729;52.090;13.162;2022-09-12T14:12:52;1.58;;;0.80;;
49834;SDS011;35729;52.090;13.162;2022-09-12T14:15:23;1.35;;;0.90;;
49834;SDS011;35729;52.090;13.162;2022-09-12T14:17:55;2.45;;;1.20;;
49834;SDS011;35729;52.090;13.162;2022-09-12T14:20:26;1.90;;;1.15;;
49834;SDS011;35729;52.090;13.162;2022-09-12T14:22:58;1.27;;;0.98;;
49834;SDS011;35729;52.090;13.162;2022-09-12T14:25:34;1.00;;;0.90;;
49834;SDS011;35729;52.090;13.162;2022-09-12T14:28:05;1.80;;;1.60;;
49834;SDS011;35729;52.090;13.162;2022-09-12T14:30:38;2.38;;;1.80;;
49834;SDS011;35729;52.090;13.162;2022-09-12T14:33:16;1.95;;;1.40;;
49834;SDS011;35729;52.090;13.162;2022-09-12T14:35:47;2.08;;;1.33;;
49834;SDS011;35729;52.090;13.162;2022-09-12T14:38:24;3.03;;;1.02;;
49834;SDS011;35729;52.090;13.162;2022-09-12T14:43:34;1.77;;;0.80;;
49834;SDS011;35729;52.090;13.162;2022-09-12T14:46:06;1.15;;;0.80;;
49834;SDS011;35729;52.090;13.162;2022-09-12T14:48:46;1.70;;;1.10;;
49834;SDS011;35729;52.090;13.162;2022-09-12T14:51:19;1.23;;;0.90;;
49834;SDS011;35729;52.090;13.162;2022-09-12T14:53:53;1.50;;;0.90;;
49834;SDS011;35729;52.090;13.162;2022-09-12T14:56:35;5.47;;;1.55;;
49834;SDS011;35729;52.090;13.162;2022-09-12T15:04:50;1.20;;;0.93;;
49834;SDS011;35729;52.090;13.162;2022-09-12T15:07:23;1.17;;;0.70;;
49834;SDS011;35729;52.090;13.162;2022-09-12T15:10:00;1.55;;;1.27;;
49834;SDS011;35729;52.090;13.162;2022-09-12T15:12:39;2.20;;;1.13;;
49834;SDS011;35729;52.090;13.162;2022-09-12T15:15:12;1.88;;;1.20;;
49834;SDS011;35729;52.090;13.162;2022-09-12T15:17:41;3.33;;;2.22;;
49834;SDS011;35729;52.090;13.162;2022-09-12T15:20:10;1.92;;;1.20;;
49834;SDS011;35729;52.090;13.162;2022-09-12T15:22:40;3.95;;;0.98;;
49834;SDS011;35729;52.090;13.162;2022-09-12T15:25:09;1.65;;;0.82;;
49834;SDS011;35729;52.090;13.162;2022-09-12T15:27:43;2.72;;;1.38;;
49834;SDS011;35729;52.090;13.162;2022-09-12T15:30:13;1.70;;;1.10;;
49834;SDS011;35729;52.090;13.162;2022-09-12T15:32:41;1.65;;;1.27;;
49834;SDS011;35729;52.090;13.162;2022-09-12T15:35:11;1.73;;;1.48;;
49834;SDS011;35729;52.090;13.162;2022-09-12T15:37:43;2.55;;;1.98;;
49834;SDS011;35729;52.090;13.162;2022-09-12T15:40:12;2.90;;;1.65;;
49834;SDS011;35729;52.090;13.162;2022-09-12T15:42:43;4.45;;;3.13;;
49834;SDS011;35729;52.090;13.162;2022-09-12T15:45:14;3.53;;;1.40;;
49834;SDS011;35729;52.090;13.162;2022-09-12T15:47:45;1.75;;;1.30;;
49834;SDS011;35729;52.090;13.162;2022-09-12T15:50:14;2.17;;;1.17;;
49834;SDS011;35729;52.090;13.162;2022-09-12T15:52:42;2.40;;;1.70;;
49834;SDS011;35729;52.090;13.162;2022-09-12T15:55:11;3.67;;;1.75;;
49834;SDS011;35729;52.090;13.162;2022-09-12T15:57:47;3.85;;;2.20;;
49834;SDS011;35729;52.090;13.162;2022-09-12T16:00:16;1.60;;;1.42;;
49834;SDS011;35729;52.090;13.162;2022-09-12T16:02:46;3.72;;;1.70;;